Time;durP1;ratioP1;P1;durP2;ratioP2;P2;SDS_P1;SDS_P2;PMS_P1;PMS_P2;Temp;Humidity;BMP_temperature;BMP_pressure;BME280_temperature;BME280_humidity;BME280_pressure;Samples;Min_cycle;Max_cycle;Signal;HPM_P1;HPM_P2
2022/08/05 00:01:40;;;;;;;4.10;3.50;;;20.90;53.40;;;;;;5078783;28;20218;-60
2022/08/05 00:04:05;;;;;;;3.50;3.20;;;20.90;53.50;;;;;;5085529;28;20262;-57
2022/08/05 00:06:31;;;;;;;3.50;3.20;;;20.90;53.40;;;;;;5085946;28;20656;-60
2022/08/05 00:08:57;;;;;;;5.23;3.70;;;20.90;53.90;;;;;;5087061;28;20232;-60
2022/08/05 00:11:22;;;;;;;9.07;4.13;;;20.80;54.00;;;;;;5073088;28;20213;-60
2022/08/05 00:13:48;;;;;;;6.20;3.60;;;20.80;54.30;;;;;;5070762;28;20224;-61
2022/08/05 00:16:14;;;;;;;8.60;3.70;;;20.70;54.40;;;;;;5078688;28;20174;-61
2022/08/05 00:18:43;;;;;;;4.20;3.50;;;20.70;54.60;;;;;;5076136;28;20248;-60
2022/08/05 00:21:09;;;;;;;6.63;3.27;;;20.70;55.00;;;;;;5083176;28;20960;-60
2022/08/05 00:23:36;;;;;;;7.23;3.20;;;20.60;55.20;;;;;;5080738;28;20444;-60
2022/08/05 00:26:03;;;;;;;3.83;3.40;;;20.60;55.30;;;;;;5085072;28;20486;-61
2022/08/05 00:28:28;;;;;;;4.00;3.53;;;20.60;55.40;;;;;;5077009;28;20455;-60
2022/08/05 00:30:54;;;;;;;4.20;3.17;;;20.60;55.40;;;;;;5083152;28;20527;-60
2022/08/05 00:33:19;;;;;;;3.87;3.50;;;20.50;55.40;;;;;;5080957;28;20722;-60
2022/08/05 00:35:45;;;;;;;3.50;3.20;;;20.50;55.40;;;;;;5084027;28;20189;-61
2022/08/05 00:38:11;;;;;;;6.07;3.40;;;20.50;55.60;;;;;;5083857;28;20290;-59
2022/08/05 00:40:46;;;;;;;4.80;3.90;;;20.50;55.80;;;;;;5083422;28;20185;-59
2022/08/05 00:43:12;;;;;;;5.20;3.67;;;20.50;55.90;;;;;;5079925;28;20706;-59
2022/08/05 00:45:37;;;;;;;4.07;3.53;;;20.50;56.00;;;;;;5077684;28;20470;-60
2022/08/05 00:48:03;;;;;;;4.20;3.80;;;20.50;55.90;;;;;;5079915;28;20176;-61
2022/08/05 00:50:29;;;;;;;4.50;3.50;;;20.40;55.60;;;;;;5086326;28;20174;-60
2022/08/05 00:52:55;;;;;;;4.73;3.47;;;20.50;55.80;;;;;;5080985;28;20197;-60
2022/08/05 00:55:20;;;;;;;4.10;3.70;;;20.50;55.80;;;;;;5071315;28;22317;-60
2022/08/05 00:57:46;;;;;;;3.57;3.23;;;20.40;55.50;;;;;;5080841;28;20181;-60
2022/08/05 01:00:12;;;;;;;3.23;2.93;;;20.40;55.20;;;;;;5086359;28;20247;-60
2022/08/05 01:02:38;;;;;;;3.73;3.43;;;20.40;55.00;;;;;;5074488;28;20223;-60
2022/08/05 01:05:03;;;;;;;8.40;3.80;;;20.50;55.10;;;;;;5084984;28;20452;-59
2022/08/05 01:07:29;;;;;;;3.10;2.80;;;20.50;54.90;;;;;;5082963;28;20667;-60
2022/08/05 01:09:55;;;;;;;3.57;3.27;;;20.50;54.20;;;;;;5082271;28;20178;-60
2022/08/05 01:12:23;;;;;;;3.57;3.27;;;20.50;54.10;;;;;;5087876;28;20198;-59
2022/08/05 01:15:02;;;;;;;3.97;3.57;;;20.60;54.00;;;;;;5080381;28;20486;-59
2022/08/05 01:17:30;;;;;;;8.20;3.50;;;20.60;53.70;;;;;;5078628;28;20467;-60
2022/08/05 01:20:05;;;;;;;5.93;3.47;;;20.60;53.00;;;;;;5087037;28;20416;-60
2022/08/05 01:22:34;;;;;;;4.73;3.23;;;20.70;53.60;;;;;;5080991;28;20450;-59
2022/08/05 01:25:31;;;;;;;4.17;2.90;;;20.70;53.20;;;;;;5073959;28;20535;-60
2022/08/05 01:28:28;;;;;;;6.03;3.53;;;20.70;53.50;;;;;;5080935;28;20497;-59
2022/08/05 01:31:01;;;;;;;6.77;3.70;;;20.70;53.90;;;;;;5079204;28;20424;-60
2022/08/05 01:33:34;;;;;;;5.70;3.50;;;20.60;54.20;;;;;;5078755;28;20459;-60
2022/08/05 01:36:05;;;;;;;6.53;3.60;;;20.60;54.80;;;;;;5076464;28;20466;-60
2022/08/05 01:38:33;;;;;;;4.23;3.83;;;20.60;55.30;;;;;;5083250;28;20980;-60
2022/08/05 01:41:01;;;;;;;4.10;3.63;;;20.50;55.30;;;;;;5081589;28;20447;-60
2022/08/05 01:43:28;;;;;;;4.90;3.60;;;20.50;55.60;;;;;;5076345;28;20459;-61
2022/08/05 01:45:56;;;;;;;3.70;3.40;;;20.40;55.70;;;;;;5070172;28;20460;-60
2022/08/05 01:48:23;;;;;;;3.80;3.43;;;20.40;55.80;;;;;;5083719;28;21025;-60
2022/08/05 01:50:51;;;;;;;3.50;3.20;;;20.40;55.90;;;;;;5080663;28;20416;-60
2022/08/05 01:53:20;;;;;;;3.40;3.10;;;20.40;55.90;;;;;;5076741;28;20428;-60
2022/08/05 01:55:47;;;;;;;5.70;4.00;;;20.40;55.80;;;;;;5086759;28;20419;-59
2022/08/05 01:58:14;;;;;;;4.53;3.60;;;20.40;55.80;;;;;;5074380;28;20833;-59
2022/08/05 02:00:48;;;;;;;4.03;3.67;;;20.40;55.90;;;;;;5070344;28;20869;-60
2022/08/05 02:03:39;;;;;;;4.20;3.60;;;20.40;56.00;;;;;;5077393;28;20427;-60
2022/08/05 02:06:06;;;;;;;5.20;4.17;;;20.40;55.80;;;;;;5078284;28;20547;-60
2022/08/05 02:08:33;;;;;;;4.10;3.70;;;20.40;55.60;;;;;;5078324;28;20904;-59
2022/08/05 02:11:05;;;;;;;7.10;3.60;;;20.40;55.50;;;;;;5073469;28;20481;-60
2022/08/05 02:13:37;;;;;;;4.03;3.63;;;20.40;55.30;;;;;;5071134;28;20420;-60
2022/08/05 02:16:19;;;;;;;8.37;3.90;;;20.40;55.40;;;;;;5068203;28;20913;-60
2022/08/05 02:18:55;;;;;;;3.43;3.13;;;20.40;54.70;;;;;;5068201;28;20515;-60
2022/08/05 02:21:27;;;;;;;3.57;3.27;;;20.40;54.10;;;;;;5085013;28;20424;-60
2022/08/05 02:23:58;;;;;;;5.13;3.67;;;20.40;53.60;;;;;;5080422;28;20424;-59
2022/08/05 02:26:32;;;;;;;4.40;3.20;;;20.40;53.00;;;;;;5080070;28;20456;-60
2022/08/05 02:28:59;;;;;;;4.63;3.50;;;20.50;53.20;;;;;;5078206;28;20795;-59
2022/08/05 02:31:30;;;;;;;5.50;3.77;;;20.50;53.30;;;;;;5083881;28;20448;-59
2022/08/05 02:34:05;;;;;;;4.37;3.97;;;20.60;54.20;;;;;;5077531;28;20479;-60
2022/08/05 02:36:34;;;;;;;4.30;3.90;;;20.60;55.20;;;;;;5077225;28;20420;-60
2022/08/05 02:39:03;;;;;;;19.93;4.23;;;20.50;56.00;;;;;;5073725;28;20434;-60
2022/08/05 02:41:31;;;;;;;3.80;3.50;;;20.40;55.80;;;;;;5084147;28;20444;-60
2022/08/05 02:43:57;;;;;;;4.93;4.00;;;20.40;56.20;;;;;;5081859;28;20423;-60
2022/08/05 02:46:25;;;;;;;6.23;3.97;;;20.30;56.30;;;;;;5085374;28;20455;-60
2022/08/05 02:48:51;;;;;;;4.10;3.70;;;20.30;56.50;;;;;;5076539;28;20455;-60
2022/08/05 02:51:17;;;;;;;4.17;3.80;;;20.30;56.90;;;;;;5076667;28;20603;-60
2022/08/05 02:53:44;;;;;;;5.00;4.10;;;20.30;57.10;;;;;;5078678;28;20420;-60
2022/08/05 02:56:12;;;;;;;4.70;3.73;;;20.30;57.20;;;;;;5083239;28;20432;-60
2022/08/05 02:58:42;;;;;;;5.20;3.97;;;20.30;57.10;;;;;;5080691;28;20945;-60
2022/08/05 03:01:16;;;;;;;5.53;3.93;;;20.20;56.80;;;;;;5072843;28;20462;-60
2022/08/05 03:03:43;;;;;;;4.17;3.77;;;20.20;57.20;;;;;;5077192;28;20468;-60
2022/08/05 03:06:10;;;;;;;4.90;4.33;;;20.20;56.90;;;;;;5084035;28;20455;-60
2022/08/05 03:08:40;;;;;;;4.87;4.20;;;20.20;57.10;;;;;;5080944;28;20928;-59
2022/08/05 03:11:24;;;;;;;5.93;4.00;;;20.20;56.90;;;;;;5086325;28;20455;-60
2022/08/05 03:13:50;;;;;;;9.30;4.13;;;20.20;56.80;;;;;;5078955;28;20481;-59
2022/08/05 03:16:16;;;;;;;4.03;3.60;;;20.20;56.90;;;;;;5083154;28;20425;-60
2022/08/05 03:18:42;;;;;;;4.30;3.63;;;20.20;56.80;;;;;;5084433;28;20459;-59
2022/08/05 03:21:08;;;;;;;4.67;4.27;;;20.20;57.00;;;;;;5074806;28;20230;-60
2022/08/05 03:23:34;;;;;;;6.47;4.20;;;20.10;57.10;;;;;;5067349;28;20265;-60
2022/08/05 03:26:02;;;;;;;5.53;4.03;;;20.10;57.30;;;;;;5074193;28;20740;-59
2022/08/05 03:28:28;;;;;;;5.30;4.23;;;20.10;57.70;;;;;;5068186;28;20948;-60
2022/08/05 03:30:56;;;;;;;4.60;4.20;;;20.00;57.80;;;;;;5078821;28;20424;-61
2022/08/05 03:33:23;;;;;;;4.70;4.30;;;20.00;58.10;;;;;;5075500;28;20429;-57
2022/08/05 03:35:49;;;;;;;4.77;4.27;;;20.00;58.70;;;;;;5075667;28;20428;-56
2022/08/05 03:38:15;;;;;;;4.87;3.70;;;20.00;58.90;;;;;;5083220;28;20440;-55
2022/08/05 03:40:42;;;;;;;4.57;4.17;;;19.90;59.20;;;;;;5083588;28;20820;-55
2022/08/05 03:43:08;;;;;;;5.10;4.60;;;19.90;59.50;;;;;;5080906;28;20489;-56
2022/08/05 03:45:34;;;;;;;8.40;4.57;;;19.80;59.70;;;;;;5075142;28;20846;-55
2022/08/05 03:47:59;;;;;;;4.67;4.20;;;19.80;59.60;;;;;;5077872;28;20170;-57
2022/08/05 03:50:33;;;;;;;5.10;4.60;;;19.80;59.70;;;;;;5080710;28;20546;-56
2022/08/05 03:53:11;;;;;;;5.40;4.37;;;19.80;59.90;;;;;;5083677;28;20207;-57
2022/08/05 03:55:42;;;;;;;9.67;4.73;;;19.80;60.40;;;;;;5073087;28;20420;-55
2022/08/05 03:58:10;;;;;;;4.20;3.80;;;19.80;60.80;;;;;;5072360;28;20499;-56
2022/08/05 04:00:38;;;;;;;4.50;4.10;;;19.80;61.10;;;;;;5071322;28;20428;-58
2022/08/05 04:03:06;;;;;;;5.57;4.43;;;19.80;61.20;;;;;;5079193;28;20488;-58
2022/08/05 04:05:34;;;;;;;4.37;4.00;;;19.80;61.50;;;;;;5077191;28;20452;-58
2022/08/05 04:08:05;;;;;;;5.67;4.43;;;19.80;61.70;;;;;;5086021;28;20508;-60
2022/08/05 04:10:32;;;;;;;9.00;4.63;;;19.80;61.70;;;;;;5076479;28;20843;-61
2022/08/05 04:12:59;;;;;;;4.50;4.10;;;19.70;61.70;;;;;;5085055;28;20444;-62
2022/08/05 04:15:26;;;;;;;4.20;3.90;;;19.70;62.00;;;;;;5080238;28;22529;-62
2022/08/05 04:17:53;;;;;;;9.70;4.53;;;19.70;61.80;;;;;;5076003;28;20953;-63
2022/08/05 04:20:20;;;;;;;4.80;4.30;;;19.70;61.60;;;;;;5068468;28;21960;-61
2022/08/05 04:22:46;;;;;;;6.17;4.40;;;19.60;61.40;;;;;;5069960;28;20812;-61
2022/08/05 04:25:12;;;;;;;5.40;4.33;;;19.60;61.40;;;;;;5077225;28;20454;-61
2022/08/05 04:27:37;;;;;;;4.97;4.43;;;19.70;61.50;;;;;;5076155;28;20257;-62
2022/08/05 04:30:04;;;;;;;5.40;4.60;;;19.70;61.40;;;;;;5086068;28;20848;-61
2022/08/05 04:32:30;;;;;;;9.60;4.10;;;19.70;61.50;;;;;;5076490;28;20226;-62
2022/08/05 04:34:55;;;;;;;5.77;4.33;;;19.70;61.80;;;;;;5077217;28;20439;-55
2022/08/05 04:37:21;;;;;;;4.23;3.70;;;19.70;61.60;;;;;;5075476;28;20281;-57
2022/08/05 04:39:47;;;;;;;5.03;4.53;;;19.70;61.60;;;;;;5081573;28;20691;-55
2022/08/05 04:42:13;;;;;;;9.07;4.50;;;19.70;61.70;;;;;;5075568;28;20201;-54
2022/08/05 04:44:38;;;;;;;4.83;3.77;;;19.70;61.80;;;;;;5085372;28;20175;-56
2022/08/05 04:47:04;;;;;;;6.03;3.80;;;19.70;62.30;;;;;;5084574;28;20182;-56
2022/08/05 04:49:30;;;;;;;4.70;4.30;;;19.70;62.60;;;;;;5089482;28;20178;-56
2022/08/05 04:51:55;;;;;;;6.27;4.80;;;19.60;63.50;;;;;;5077649;28;20198;-56
2022/08/05 04:54:21;;;;;;;4.63;4.13;;;19.60;64.40;;;;;;5083617;28;20174;-55
2022/08/05 04:56:47;;;;;;;9.90;4.53;;;19.60;64.80;;;;;;5085809;28;20193;-54
2022/08/05 04:59:14;;;;;;;5.40;4.47;;;19.60;65.50;;;;;;5087426;28;20177;-56
2022/08/05 05:01:41;;;;;;;5.60;5.00;;;19.60;66.00;;;;;;5084952;28;20240;-56
2022/08/05 05:04:06;;;;;;;5.67;4.50;;;19.50;65.60;;;;;;5082257;28;20879;-56
2022/08/05 05:06:32;;;;;;;4.47;4.10;;;19.50;65.90;;;;;;5081660;28;20564;-56
2022/08/05 05:08:57;;;;;;;4.50;4.10;;;19.60;66.40;;;;;;5087854;28;20189;-55
2022/08/05 05:11:23;;;;;;;7.20;4.27;;;19.60;66.50;;;;;;5074841;28;20194;-56
2022/08/05 05:13:49;;;;;;;6.50;4.67;;;19.60;66.50;;;;;;5087139;28;20170;-56
2022/08/05 05:16:15;;;;;;;5.13;4.63;;;19.70;66.20;;;;;;5084626;28;20174;-57
2022/08/05 05:18:42;;;;;;;5.33;4.87;;;19.70;65.70;;;;;;5082337;28;20186;-54
2022/08/05 05:21:08;;;;;;;5.60;4.10;;;19.80;65.30;;;;;;5082364;28;20198;-55
2022/08/05 05:23:34;;;;;;;4.40;4.00;;;19.80;65.40;;;;;;5083321;28;20435;-55
2022/08/05 05:25:59;;;;;;;5.67;4.23;;;19.90;65.00;;;;;;5086689;28;20194;-55
2022/08/05 05:28:25;;;;;;;5.27;4.77;;;20.00;64.80;;;;;;5090865;28;20166;-56
2022/08/05 05:30:51;;;;;;;4.97;4.50;;;20.00;64.70;;;;;;5072889;28;20163;-54
2022/08/05 05:33:16;;;;;;;8.70;4.63;;;20.20;63.90;;;;;;5084718;28;20178;-54
2022/08/05 05:35:44;;;;;;;5.43;4.57;;;20.20;63.70;;;;;;5079172;28;20662;-54
2022/08/05 05:38:09;;;;;;;5.47;4.97;;;20.30;63.50;;;;;;5090049;28;20166;-55
2022/08/05 05:40:35;;;;;;;5.63;4.40;;;20.30;63.20;;;;;;5085717;28;21010;-54
2022/08/05 05:43:00;;;;;;;7.43;4.40;;;20.30;62.70;;;;;;5070148;28;20576;-53
2022/08/05 05:45:26;;;;;;;4.00;3.70;;;20.40;62.90;;;;;;5085149;28;20189;-55
2022/08/05 05:47:52;;;;;;;8.57;3.60;;;20.40;64.20;;;;;;5082195;28;20205;-55
2022/08/05 05:50:18;;;;;;;4.20;3.80;;;20.60;66.40;;;;;;5090023;28;20162;-55
2022/08/05 05:52:46;;;;;;;7.20;4.33;;;20.80;66.90;;;;;;5079410;28;20190;-56
2022/08/05 05:55:13;;;;;;;7.50;4.57;;;21.10;65.10;;;;;;5084573;28;20441;-53
2022/08/05 05:57:41;;;;;;;9.53;4.60;;;21.30;64.20;;;;;;5085172;28;20924;-54
2022/08/05 06:00:12;;;;;;;8.13;4.40;;;21.40;62.30;;;;;;5074308;28;21134;-55
2022/08/05 06:02:38;;;;;;;5.17;4.17;;;21.50;61.60;;;;;;5083360;28;20469;-54
2022/08/05 06:05:06;;;;;;;7.00;4.20;;;21.50;61.30;;;;;;5085745;28;20942;-55
2022/08/05 06:07:32;;;;;;;5.20;4.20;;;21.50;61.00;;;;;;5070633;28;20440;-55
2022/08/05 06:09:57;;;;;;;6.60;4.83;;;21.60;60.70;;;;;;5086861;28;20424;-55
2022/08/05 06:12:23;;;;;;;5.30;4.63;;;21.70;60.40;;;;;;5072073;28;20198;-55
2022/08/05 06:14:49;;;;;;;12.23;4.00;;;21.70;60.00;;;;;;5078045;28;20661;-55
2022/08/05 06:17:14;;;;;;;6.97;4.43;;;21.80;59.90;;;;;;5082193;28;20170;-54
2022/08/05 06:19:40;;;;;;;7.10;4.57;;;21.80;59.80;;;;;;5084276;28;20182;-55
2022/08/05 06:22:07;;;;;;;10.50;3.50;;;21.80;59.50;;;;;;5083011;28;20221;-55
2022/08/05 06:24:40;;;;;;;5.57;3.70;;;21.90;59.20;;;;;;5078672;28;20303;-54
2022/08/05 06:27:06;;;;;;;6.57;4.00;;;22.00;58.30;;;;;;5089401;28;20521;-56
2022/08/05 06:29:31;;;;;;;6.20;3.73;;;22.30;57.80;;;;;;5075292;28;20882;-55
2022/08/05 06:31:57;;;;;;;4.30;3.60;;;22.50;57.10;;;;;;5084599;28;20201;-56
2022/08/05 06:34:22;;;;;;;6.70;3.90;;;22.70;56.50;;;;;;5085476;28;20223;-55
2022/08/05 06:36:48;;;;;;;6.50;3.60;;;23.10;55.90;;;;;;5088967;28;20653;-54
2022/08/05 06:39:14;;;;;;;5.47;3.70;;;23.30;55.20;;;;;;5082184;28;20287;-55
2022/08/05 06:41:40;;;;;;;4.57;3.87;;;23.50;55.00;;;;;;5088964;28;20202;-54
2022/08/05 06:44:05;;;;;;;3.80;3.40;;;23.70;54.80;;;;;;5084833;28;20265;-55
2022/08/05 06:46:31;;;;;;;7.30;3.60;;;23.90;54.70;;;;;;5073142;28;20252;-61
2022/08/05 06:48:57;;;;;;;6.43;4.00;;;24.10;54.80;;;;;;5080512;28;20174;-56
2022/08/05 06:51:23;;;;;;;7.83;3.57;;;24.40;54.70;;;;;;5075025;28;20205;-54
2022/08/05 06:53:49;;;;;;;13.03;4.20;;;24.60;54.30;;;;;;5081084;28;20964;-55
2022/08/05 06:56:15;;;;;;;13.93;4.50;;;24.70;53.80;;;;;;5086086;28;20439;-58
2022/08/05 06:58:40;;;;;;;4.00;3.60;;;24.80;53.70;;;;;;5089654;28;20178;-55
2022/08/05 07:01:06;;;;;;;7.40;3.60;;;24.90;53.20;;;;;;5078540;28;20209;-56
2022/08/05 07:03:33;;;;;;;8.03;4.13;;;25.00;53.20;;;;;;5085874;28;20182;-57
2022/08/05 07:06:01;;;;;;;11.50;3.60;;;25.10;53.10;;;;;;5072415;28;20522;-57
2022/08/05 07:08:27;;;;;;;9.53;4.17;;;25.10;51.90;;;;;;5084303;28;20422;-55
2022/08/05 07:10:53;;;;;;;6.63;4.07;;;25.20;52.10;;;;;;5081091;28;20459;-56
2022/08/05 07:18:47;;;;;;;6.60;3.70;;;25.50;52.00;;;;;;5092032;28;21222;-55
2022/08/05 07:21:13;;;;;;;6.67;4.17;;;25.60;51.90;;;;;;5080429;28;20459;-57
2022/08/05 07:23:38;;;;;;;4.40;3.57;;;25.70;51.70;;;;;;5080953;28;20178;-57
2022/08/05 07:26:04;;;;;;;4.63;3.67;;;25.70;51.90;;;;;;5077931;28;20221;-54
2022/08/05 07:28:30;;;;;;;7.33;4.37;;;25.70;52.10;;;;;;5079027;28;20182;-55
2022/08/05 07:30:57;;;;;;;8.73;4.13;;;25.80;52.00;;;;;;5075548;28;20749;-54
2022/08/05 07:33:22;;;;;;;5.17;3.87;;;25.90;51.80;;;;;;5075011;28;20166;-56
2022/08/05 07:35:48;;;;;;;5.47;4.37;;;25.90;52.00;;;;;;5081079;28;20980;-54
2022/08/05 07:38:15;;;;;;;5.40;4.10;;;26.00;51.60;;;;;;5081629;28;20185;-54
2022/08/05 07:40:42;;;;;;;9.10;4.20;;;26.10;51.40;;;;;;5077517;28;20174;-56
2022/08/05 07:43:08;;;;;;;7.50;4.23;;;26.30;51.60;;;;;;5078718;28;20475;-55
2022/08/05 07:45:34;;;;;;;7.33;4.00;;;26.30;50.80;;;;;;5079282;28;20456;-54
2022/08/05 07:47:59;;;;;;;13.43;5.17;;;26.30;51.30;;;;;;5078600;28;20436;-55
2022/08/05 07:50:25;;;;;;;8.50;3.53;;;26.30;51.20;;;;;;5082615;28;20191;-56
2022/08/05 07:52:51;;;;;;;9.77;3.97;;;26.30;51.30;;;;;;5079124;28;20197;-54
2022/08/05 07:55:16;;;;;;;6.37;3.77;;;26.30;51.30;;;;;;5079134;28;20249;-55
2022/08/05 07:57:42;;;;;;;9.33;4.00;;;26.40;51.40;;;;;;5077090;28;20200;-55
2022/08/05 08:00:08;;;;;;;11.53;4.40;;;26.40;51.20;;;;;;5077833;28;20541;-55
2022/08/05 08:02:34;;;;;;;5.60;3.97;;;26.40;50.90;;;;;;5081789;28;20236;-54
2022/08/05 08:05:00;;;;;;;7.77;3.97;;;26.50;50.60;;;;;;5080927;28;20486;-55
2022/08/05 08:07:26;;;;;;;4.80;3.87;;;26.50;50.70;;;;;;5076038;28;20227;-56
2022/08/05 08:09:52;;;;;;;7.43;3.87;;;26.50;50.50;;;;;;5078016;28;20427;-57
2022/08/05 08:12:21;;;;;;;5.50;4.40;;;26.60;50.60;;;;;;5084066;28;20261;-57
2022/08/05 08:14:47;;;;;;;6.70;4.23;;;26.70;50.30;;;;;;5073797;28;20243;-54
2022/08/05 08:17:13;;;;;;;6.47;4.00;;;26.70;50.40;;;;;;5075826;28;20941;-53
2022/08/05 08:19:40;;;;;;;6.20;3.83;;;26.70;50.50;;;;;;5075765;28;20235;-53
2022/08/05 08:22:07;;;;;;;6.27;3.93;;;26.70;50.30;;;;;;5077882;28;20454;-54
2022/08/05 08:24:33;;;;;;;10.23;3.80;;;26.70;50.30;;;;;;5076702;28;20432;-57
2022/08/05 08:26:59;;;;;;;5.50;4.10;;;26.90;50.40;;;;;;5080967;28;20281;-55
2022/08/05 08:29:25;;;;;;;13.53;4.33;;;27.00;50.20;;;;;;5073125;28;21027;-56
2022/08/05 08:31:51;;;;;;;7.40;4.43;;;27.10;50.20;;;;;;5075899;28;20207;-55
2022/08/05 08:34:21;;;;;;;7.50;4.13;;;27.20;50.20;;;;;;5078955;28;20170;-55
2022/08/05 08:36:47;;;;;;;7.37;4.67;;;27.30;49.80;;;;;;5079569;28;20273;-55
2022/08/05 08:39:14;;;;;;;5.10;4.23;;;27.50;49.50;;;;;;5078618;28;20269;-55
2022/08/05 08:41:40;;;;;;;5.07;4.40;;;27.60;49.60;;;;;;5076879;28;20202;-57
2022/08/05 08:44:11;;;;;;;7.37;4.80;;;27.70;49.20;;;;;;5080957;28;20182;-56
2022/08/05 08:46:37;;;;;;;7.10;4.30;;;27.90;49.20;;;;;;5080080;28;20202;-56
2022/08/05 08:49:03;;;;;;;5.50;3.73;;;28.00;48.80;;;;;;5079742;28;20197;-54
2022/08/05 08:51:32;;;;;;;7.37;4.00;;;28.10;48.40;;;;;;5078048;28;20194;-56
2022/08/05 08:53:58;;;;;;;8.70;4.17;;;28.20;47.70;;;;;;5078650;28;20176;-56
2022/08/05 08:56:24;;;;;;;6.17;4.50;;;28.40;47.60;;;;;;5078840;28;20193;-57
2022/08/05 08:58:50;;;;;;;7.57;3.90;;;28.40;47.30;;;;;;5081156;28;20173;-56
2022/08/05 09:01:17;;;;;;;6.73;3.93;;;28.50;47.40;;;;;;5076146;28;20205;-56
2022/08/05 09:03:46;;;;;;;6.93;3.70;;;28.50;47.60;;;;;;5080955;28;20186;-55
2022/08/05 09:06:12;;;;;;;6.97;4.20;;;28.50;47.60;;;;;;5074955;28;20220;-56
2022/08/05 09:08:37;;;;;;;5.07;4.00;;;28.60;47.80;;;;;;5076723;28;20182;-56
2022/08/05 09:11:03;;;;;;;10.40;4.43;;;28.70;47.40;;;;;;5081439;28;20578;-55
2022/08/05 09:13:29;;;;;;;3.45;3.15;;;28.80;47.50;;;;;;5076587;28;20174;-56
2022/08/05 09:15:55;;;;;;;5.70;3.30;;;28.80;47.20;;;;;;5073999;28;22779;-58
2022/08/05 09:18:21;;;;;;;3.42;3.13;;;28.70;46.60;;;;;;5073965;28;20226;-57
2022/08/05 09:20:47;;;;;;;5.72;4.03;;;28.60;47.00;;;;;;5075759;28;20253;-53
2022/08/05 09:23:19;;;;;;;4.05;3.00;;;28.70;46.80;;;;;;5073868;28;20177;-56
2022/08/05 09:25:50;;;;;;;10.98;4.80;;;28.80;46.70;;;;;;5072950;28;20686;-55
2022/08/05 09:28:18;;;;;;;3.80;3.45;;;28.90;46.30;;;;;;5075834;28;20178;-57
2022/08/05 09:30:51;;;;;;;4.82;3.65;;;29.10;46.30;;;;;;5071967;28;20213;-57
2022/08/05 09:33:17;;;;;;;5.13;3.25;;;29.20;46.50;;;;;;5074169;28;20184;-55
2022/08/05 09:35:55;;;;;;;3.90;3.50;;;29.20;45.90;;;;;;5078635;28;20268;-56
2022/08/05 09:38:21;;;;;;;7.95;3.55;;;29.30;45.80;;;;;;5080898;28;20248;-55
2022/08/05 09:40:47;;;;;;;5.13;3.38;;;29.40;46.00;;;;;;5075590;28;20174;-55
2022/08/05 09:43:27;;;;;;;8.82;2.97;;;29.50;45.60;;;;;;5076804;28;20650;-55
2022/08/05 09:45:53;;;;;;;6.63;3.83;;;29.70;45.70;;;;;;5078032;28;20702;-57
2022/08/05 09:48:30;;;;;;;16.15;4.07;;;29.90;44.80;;;;;;5075636;28;20184;-56
2022/08/05 09:51:00;;;;;;;7.05;3.38;;;29.90;44.50;;;;;;5073797;28;20165;-61
2022/08/05 09:53:27;;;;;;;12.40;3.92;;;29.90;44.20;;;;;;5071082;28;20170;-61
2022/08/05 09:56:00;;;;;;;3.67;3.08;;;29.90;44.20;;;;;;5071708;28;20182;-60
2022/08/05 09:58:27;;;;;;;13.15;3.70;;;30.00;44.60;;;;;;5072889;28;20212;-59
2022/08/05 10:00:55;;;;;;;6.60;3.35;;;30.00;43.60;;;;;;5072291;28;20182;-60
2022/08/05 10:03:21;;;;;;;6.80;3.40;;;29.90;43.80;;;;;;5079600;28;20174;-60
2022/08/05 10:06:00;;;;;;;3.78;3.45;;;30.00;43.80;;;;;;5077904;28;20774;-59
2022/08/05 10:08:25;;;;;;;7.38;3.53;;;30.00;43.30;;;;;;5072259;28;20185;-60
2022/08/05 10:10:51;;;;;;;3.70;3.03;;;29.90;43.70;;;;;;5076040;28;20570;-59
2022/08/05 10:13:46;;;;;;;4.65;3.17;;;30.00;43.60;;;;;;5075858;28;20171;-60
2022/08/05 10:16:32;;;;;;;4.55;3.38;;;30.10;43.00;;;;;;5065649;28;20265;-59
2022/08/05 10:18:59;;;;;;;3.45;3.17;;;30.10;43.60;;;;;;5074046;28;20178;-61
2022/08/05 10:21:24;;;;;;;12.02;3.40;;;30.20;43.60;;;;;;5080320;28;20224;-59
2022/08/05 10:23:51;;;;;;;5.20;3.75;;;30.40;43.40;;;;;;5073723;28;20215;-61
2022/08/05 10:26:16;;;;;;;5.22;2.78;;;30.60;43.30;;;;;;5070977;28;20202;-62
2022/08/05 10:28:44;;;;;;;3.78;3.17;;;30.70;42.80;;;;;;5071853;28;20201;-60
2022/08/05 10:31:11;;;;;;;12.13;3.05;;;30.80;42.20;;;;;;5069875;28;20287;-59
2022/08/05 10:33:38;;;;;;;7.03;4.05;;;30.90;42.30;;;;;;5069556;28;20233;-59
2022/08/05 10:36:04;;;;;;;8.07;3.13;;;31.00;41.80;;;;;;5066711;28;20219;-59
2022/08/05 10:38:31;;;;;;;8.60;3.45;;;30.90;41.60;;;;;;5074957;28;20167;-59
2022/08/05 10:41:10;;;;;;;3.80;3.33;;;30.90;41.90;;;;;;5069221;28;20171;-59
2022/08/05 10:43:44;;;;;;;3.88;3.33;;;30.90;41.80;;;;;;5075830;28;20179;-59
2022/08/05 10:46:17;;;;;;;3.33;3.03;;;30.80;41.70;;;;;;5070656;28;20281;-59
2022/08/05 10:48:47;;;;;;;5.00;3.03;;;30.60;41.80;;;;;;5077608;28;20175;-59
2022/08/05 10:51:15;;;;;;;7.80;3.55;;;30.60;42.10;;;;;;5080906;28;20187;-59
2022/08/05 10:53:43;;;;;;;3.63;2.95;;;30.70;42.10;;;;;;5079581;28;20167;-62
2022/08/05 10:56:14;;;;;;;3.40;3.10;;;30.90;42.00;;;;;;5074311;28;20180;-59
2022/08/05 10:58:52;;;;;;;7.10;3.08;;;31.00;41.70;;;;;;5094030;28;20747;-59
2022/08/05 11:01:32;;;;;;;3.47;3.10;;;31.10;41.60;;;;;;5079798;28;20211;-60
2022/08/05 11:04:10;;;;;;;3.30;3.00;;;31.20;41.50;;;;;;5075841;28;20576;-59
2022/08/05 11:06:56;;;;;;;3.75;3.45;;;31.20;41.40;;;;;;5080607;28;20221;-60
2022/08/05 11:09:24;;;;;;;7.45;3.13;;;31.10;41.50;;;;;;5078095;28;20178;-60
2022/08/05 11:11:51;;;;;;;3.78;3.47;;;31.20;41.40;;;;;;5082484;28;20185;-59
2022/08/05 11:14:29;;;;;;;3.65;3.03;;;31.30;41.60;;;;;;5073357;28;20183;-58
2022/08/05 11:17:23;;;;;;;3.10;2.83;;;31.50;41.10;;;;;;5074911;28;20176;-59
2022/08/05 11:19:52;;;;;;;4.43;3.28;;;31.70;41.10;;;;;;5075805;28;20258;-59
2022/08/05 11:22:39;;;;;;;9.15;3.15;;;31.80;41.00;;;;;;5079853;28;20306;-58
2022/08/05 11:25:37;;;;;;;5.55;3.38;;;32.00;40.60;;;;;;5074661;28;20197;-58
2022/08/05 11:28:11;;;;;;;5.68;3.28;;;32.00;40.30;;;;;;5070567;28;20176;-61
2022/08/05 11:30:55;;;;;;;3.30;3.05;;;32.10;40.50;;;;;;5075323;28;20223;-60
2022/08/05 11:33:37;;;;;;;6.07;3.30;;;32.30;40.50;;;;;;5072104;28;20169;-60
2022/08/05 11:36:08;;;;;;;4.45;2.90;;;32.30;40.50;;;;;;5076746;28;20210;-61
2022/08/05 11:38:43;;;;;;;7.07;2.88;;;32.50;40.30;;;;;;5077200;28;20179;-61
2022/08/05 11:41:14;;;;;;;6.30;3.40;;;32.60;39.90;;;;;;5077313;28;20225;-61
2022/08/05 11:44:03;;;;;;;6.68;3.33;;;32.50;39.60;;;;;;5070786;28;20318;-61
2022/08/05 11:46:37;;;;;;;6.95;3.80;;;32.60;40.50;;;;;;5066235;28;20193;-61
2022/08/05 11:49:04;;;;;;;3.70;3.40;;;32.60;39.40;;;;;;5071904;28;20174;-59
2022/08/05 11:51:31;;;;;;;6.63;3.53;;;32.70;39.80;;;;;;5075473;28;20279;-59
2022/08/05 11:53:59;;;;;;;4.00;3.10;;;32.70;39.00;;;;;;5079315;28;20560;-59
2022/08/05 11:56:25;;;;;;;4.53;3.25;;;32.70;39.60;;;;;;5071699;28;20188;-60
2022/08/05 11:58:51;;;;;;;5.63;3.10;;;32.80;39.50;;;;;;5078942;28;20187;-60
2022/08/05 12:01:19;;;;;;;5.45;3.05;;;33.00;39.60;;;;;;5072102;28;20216;-60
2022/08/05 12:03:51;;;;;;;5.18;3.10;;;33.20;39.40;;;;;;5075750;28;20183;-60
2022/08/05 12:06:19;;;;;;;8.25;3.75;;;33.50;38.40;;;;;;5076484;28;20704;-63
2022/08/05 12:08:50;;;;;;;4.82;3.40;;;33.60;38.10;;;;;;5071630;28;20204;-62
2022/08/05 12:11:20;;;;;;;3.80;3.50;;;33.70;38.50;;;;;;5073385;28;20205;-62
2022/08/05 12:13:58;;;;;;;5.72;3.35;;;33.90;37.80;;;;;;5079793;28;20182;-62
2022/08/05 12:16:26;;;;;;;3.85;3.13;;;33.90;38.40;;;;;;5071633;28;20268;-62
2022/08/05 12:18:52;;;;;;;10.10;3.70;;;34.10;38.10;;;;;;5078384;28;20176;-61
2022/08/05 12:21:31;;;;;;;7.03;3.58;;;34.20;37.80;;;;;;5075003;28;20268;-61
2022/08/05 12:24:07;;;;;;;3.75;3.05;;;34.30;37.70;;;;;;5080748;28;20201;-61
2022/08/05 12:26:46;;;;;;;7.05;3.28;;;34.40;37.60;;;;;;5073076;28;20218;-63
2022/08/05 12:29:15;;;;;;;7.35;3.38;;;34.50;37.20;;;;;;5076057;28;20193;-61
2022/08/05 12:31:44;;;;;;;3.50;3.20;;;34.60;37.40;;;;;;5078805;28;20208;-62
2022/08/05 12:34:10;;;;;;;6.43;3.20;;;34.80;37.10;;;;;;5084361;28;20252;-61
2022/08/05 12:36:37;;;;;;;6.07;3.80;;;34.90;36.00;;;;;;5088919;28;20271;-61
2022/08/05 12:39:04;;;;;;;6.22;3.17;;;34.90;35.50;;;;;;5076911;28;20192;-61
2022/08/05 12:41:32;;;;;;;4.70;3.47;;;34.80;36.20;;;;;;5085586;28;20195;-62
2022/08/05 12:44:02;;;;;;;4.45;3.17;;;35.00;35.70;;;;;;5084308;28;20189;-61
2022/08/05 12:46:32;;;;;;;3.67;2.85;;;35.00;35.70;;;;;;5075401;28;20328;-62
2022/08/05 12:49:07;;;;;;;5.60;3.65;;;35.20;36.60;;;;;;5076382;28;20654;-62
2022/08/05 12:51:50;;;;;;;4.68;3.17;;;35.30;36.80;;;;;;5076785;28;20184;-61
2022/08/05 12:54:21;;;;;;;6.57;3.58;;;35.00;36.60;;;;;;5072259;28;20219;-64
2022/08/05 12:56:52;;;;;;;4.13;3.10;;;34.60;37.10;;;;;;5076363;28;20174;-62
2022/08/05 12:59:20;;;;;;;4.85;3.58;;;34.10;37.40;;;;;;5076085;28;20177;-63